createdAt,value
2022-11-18T19:20:21.610Z,53.55
2022-11-18T19:22:51.426Z,49.35
2022-11-18T19:25:19.060Z,51.67
2022-11-18T19:27:47.315Z,38.65
2022-11-18T19:30:15.071Z,42.03
2022-11-18T19:32:46.443Z,39.67
2022-11-18T19:35:15.340Z,39.20
2022-11-18T19:40:12.303Z,40.03
2022-11-18T19:42:41.101Z,39.38
2022-11-18T19:45:11.054Z,33.63
2022-11-18T19:47:38.848Z,38.45
2022-11-18T19:50:08.016Z,37.00
2022-11-18T19:52:35.668Z,34.42
2022-11-18T19:55:03.156Z,27.35
2022-11-18T19:57:31.922Z,31.73
2022-11-18T19:59:59.819Z,35.30
2022-11-18T20:02:27.439Z,29.85
2022-11-18T20:05:13.595Z,27.50
2022-11-18T20:07:41.251Z,30.30
2022-11-18T20:10:09.712Z,29.17
2022-11-18T20:12:37.623Z,28.58
2022-11-18T20:15:05.475Z,26.40
2022-11-18T20:17:33.198Z,26.10
2022-11-18T20:20:01.302Z,23.80
2022-11-18T20:22:28.332Z,27.87
2022-11-18T20:24:55.383Z,26.48
2022-11-18T20:27:23.027Z,21.48
2022-11-18T20:29:52.259Z,23.60
2022-11-18T20:32:20.082Z,19.77
2022-11-18T20:34:47.721Z,24.85
2022-11-18T20:37:18.644Z,19.48
2022-11-18T20:39:46.122Z,22.58
2022-11-18T20:42:32.357Z,24.83
2022-11-18T20:44:59.968Z,22.50
2022-11-18T20:47:45.326Z,21.92
2022-11-18T20:50:13.425Z,22.50
2022-11-18T20:52:40.638Z,18.07
2022-11-18T20:55:08.084Z,18.80
2022-11-18T20:57:35.331Z,21.67
2022-11-18T21:00:02.765Z,17.52
2022-11-18T21:02:31.052Z,14.35
2022-11-18T21:04:58.525Z,16.92
2022-11-18T21:07:25.886Z,17.50
2022-11-18T21:09:53.011Z,16.77
2022-11-18T21:12:20.513Z,17.35
2022-11-18T21:14:47.739Z,16.23
2022-11-18T21:17:14.939Z,15.02
2022-11-18T21:19:45.879Z,15.80
2022-11-18T21:22:15.628Z,17.67
2022-11-18T21:24:42.884Z,15.77
2022-11-18T21:27:10.339Z,16.55
2022-11-18T21:29:37.236Z,14.10
2022-11-18T21:32:04.274Z,13.52
2022-11-18T21:34:31.830Z,15.25
2022-11-18T21:36:59.050Z,11.90
2022-11-18T21:39:27.659Z,12.50
2022-11-18T21:41:57.303Z,13.95
2022-11-18T21:44:26.353Z,15.98
2022-11-18T21:46:53.515Z,14.32
2022-11-18T21:49:39.340Z,14.73
2022-11-18T21:52:06.315Z,15.38
2022-11-18T21:54:35.119Z,15.05
2022-11-18T21:57:02.176Z,11.93
2022-11-18T21:59:29.093Z,16.23
2022-11-18T22:01:56.393Z,14.25
2022-11-18T22:04:42.044Z,12.57
2022-11-18T22:07:09.233Z,13.20
2022-11-18T22:09:37.108Z,15.23
2022-11-18T22:12:05.769Z,15.97
2022-11-18T22:14:32.792Z,14.93
2022-11-18T22:16:59.719Z,12.63
2022-11-18T22:19:26.682Z,13.02
2022-11-18T22:21:53.576Z,12.40
2022-11-18T22:24:20.537Z,12.60
2022-11-18T22:26:47.455Z,12.73
2022-11-18T22:29:14.421Z,13.85
2022-11-18T22:31:41.287Z,11.80
2022-11-18T22:34:10.256Z,12.25
2022-11-18T22:36:37.246Z,11.65
2022-11-18T22:39:04.243Z,11.73
2022-11-18T22:41:49.900Z,12.40
2022-11-18T22:44:17.929Z,13.57
2022-11-18T22:46:45.812Z,11.97
2022-11-18T22:49:13.795Z,9.80
2022-11-18T22:51:40.881Z,11.17
2022-11-18T22:54:38.220Z,10.88
2022-11-18T22:56:55.729Z,12.07
2022-11-18T22:59:23.038Z,11.70
2022-11-18T23:01:53.326Z,9.77
2022-11-18T23:04:20.601Z,11.05
2022-11-18T23:06:49.101Z,9.55
2022-11-18T23:09:16.387Z,9.30
2022-11-18T23:12:02.181Z,10.40
2022-11-18T23:14:29.123Z,13.20
2022-11-18T23:16:56.021Z,11.18
2022-11-18T23:19:23.114Z,13.80
2022-11-18T23:21:50.515Z,9.50
2022-11-18T23:24:18.944Z,11.55
2022-11-18T23:26:47.235Z,8.93
2022-11-18T23:29:15.037Z,13.13
2022-11-18T23:31:43.771Z,10.90
2022-11-18T23:34:12.524Z,10.40
2022-11-18T23:36:40.085Z,9.00
2022-11-18T23:39:07.610Z,8.55
2022-11-18T23:41:34.839Z,13.00
2022-11-18T23:44:02.066Z,9.88
2022-11-18T23:46:28.994Z,9.57
2022-11-18T23:48:55.916Z,11.63
2022-11-18T23:51:24.855Z,10.68
2022-11-18T23:53:54.681Z,13.07
2022-11-18T23:56:24.663Z,9.07
2022-11-18T23:58:53.258Z,14.75
